sensor_id;sensor_type;location;lat;lon;timestamp;P1;durP1;ratioP1;P2;durP2;ratioP2
56391;SDS011;42289;53.582;9.714;2022-09-12T00:01:19;6.00;;;4.50;;
56391;SDS011;42289;53.582;9.714;2022-09-12T00:03:50;7.07;;;4.55;;
56391;SDS011;42289;53.582;9.714;2022-09-12T00:06:17;6.60;;;4.50;;
56391;SDS011;42289;53.582;9.714;2022-09-12T00:08:45;8.23;;;4.53;;
56391;SDS011;42289;53.582;9.714;2022-09-12T00:11:12;6.07;;;4.25;;
56391;SDS011;42289;53.582;9.714;2022-09-12T00:13:40;10.90;;;4.60;;
56391;SDS011;42289;53.582;9.714;2022-09-12T00:16:13;8.82;;;5.00;;
56391;SDS011;42289;53.582;9.714;2022-09-12T00:18:40;7.05;;;4.90;;
56391;SDS011;42289;53.582;9.714;2022-09-12T00:21:08;6.50;;;4.47;;
56391;SDS011;42289;53.582;9.714;2022-09-12T00:23:35;6.78;;;5.25;;
56391;SDS011;42289;53.582;9.714;2022-09-12T00:26:02;7.85;;;5.28;;
56391;SDS011;42289;53.582;9.714;2022-09-12T00:28:29;8.18;;;6.20;;
56391;SDS011;42289;53.582;9.714;2022-09-12T00:30:57;10.32;;;6.68;;
56391;SDS011;42289;53.582;9.714;2022-09-12T00:33:24;8.75;;;5.88;;
56391;SDS011;42289;53.582;9.714;2022-09-12T00:35:51;9.35;;;6.32;;
56391;SDS011;42289;53.582;9.714;2022-09-12T00:38:18;7.88;;;5.85;;
56391;SDS011;42289;53.582;9.714;2022-09-12T00:40:45;8.38;;;6.18;;
56391;SDS011;42289;53.582;9.714;2022-09-12T00:43:12;8.80;;;6.32;;
56391;SDS011;42289;53.582;9.714;2022-09-12T00:45:40;9.30;;;6.50;;
56391;SDS011;42289;53.582;9.714;2022-09-12T00:48:12;8.38;;;6.03;;
56391;SDS011;42289;53.582;9.714;2022-09-12T00:50:45;9.00;;;5.93;;
56391;SDS011;42289;53.582;9.714;2022-09-12T00:53:11;9.55;;;6.18;;
56391;SDS011;42289;53.582;9.714;2022-09-12T00:55:38;8.25;;;6.10;;
56391;SDS011;42289;53.582;9.714;2022-09-12T00:58:09;9.27;;;6.40;;
56391;SDS011;42289;53.582;9.714;2022-09-12T01:00:39;8.65;;;6.40;;
56391;SDS011;42289;53.582;9.714;2022-09-12T01:03:07;9.57;;;6.65;;
56391;SDS011;42289;53.582;9.714;2022-09-12T01:05:40;10.40;;;7.15;;
56391;SDS011;42289;53.582;9.714;2022-09-12T01:08:09;9.15;;;6.43;;
56391;SDS011;42289;53.582;9.714;2022-09-12T01:10:37;9.18;;;5.95;;
56391;SDS011;42289;53.582;9.714;2022-09-12T01:13:05;8.43;;;6.28;;
56391;SDS011;42289;53.582;9.714;2022-09-12T01:15:33;9.75;;;6.97;;
56391;SDS011;42289;53.582;9.714;2022-09-12T01:18:07;10.90;;;7.38;;
56391;SDS011;42289;53.582;9.714;2022-09-12T01:20:45;11.50;;;7.50;;
56391;SDS011;42289;53.582;9.714;2022-09-12T01:23:24;11.40;;;7.22;;
56391;SDS011;42289;53.582;9.714;2022-09-12T01:26:29;9.73;;;7.07;;
56391;SDS011;42289;53.582;9.714;2022-09-12T01:29:26;13.40;;;8.65;;
56391;SDS011;42289;53.582;9.714;2022-09-12T01:32:19;11.25;;;7.50;;
56391;SDS011;42289;53.582;9.714;2022-09-12T01:34:53;13.30;;;8.50;;
56391;SDS011;42289;53.582;9.714;2022-09-12T01:37:33;12.57;;;8.60;;
56391;SDS011;42289;53.582;9.714;2022-09-12T01:40:06;12.40;;;8.15;;
56391;SDS011;42289;53.582;9.714;2022-09-12T01:42:40;14.18;;;7.85;;
56391;SDS011;42289;53.582;9.714;2022-09-12T01:45:17;10.20;;;7.28;;
56391;SDS011;42289;53.582;9.714;2022-09-12T01:47:52;12.18;;;7.45;;
56391;SDS011;42289;53.582;9.714;2022-09-12T01:50:22;14.98;;;7.35;;
56391;SDS011;42289;53.582;9.714;2022-09-12T01:52:53;11.90;;;7.82;;
56391;SDS011;42289;53.582;9.714;2022-09-12T01:55:24;12.02;;;8.10;;
56391;SDS011;42289;53.582;9.714;2022-09-12T01:57:56;13.85;;;8.48;;
56391;SDS011;42289;53.582;9.714;2022-09-12T02:00:27;12.52;;;8.35;;
56391;SDS011;42289;53.582;9.714;2022-09-12T02:02:57;13.80;;;8.75;;
56391;SDS011;42289;53.582;9.714;2022-09-12T02:05:28;11.13;;;8.23;;
56391;SDS011;42289;53.582;9.714;2022-09-12T02:08:00;13.73;;;8.30;;
56391;SDS011;42289;53.582;9.714;2022-09-12T02:10:31;10.60;;;7.05;;
56391;SDS011;42289;53.582;9.714;2022-09-12T02:13:03;11.88;;;7.53;;
56391;SDS011;42289;53.582;9.714;2022-09-12T02:15:35;11.10;;;6.95;;
56391;SDS011;42289;53.582;9.714;2022-09-12T02:18:07;12.82;;;8.07;;
56391;SDS011;42289;53.582;9.714;2022-09-12T02:20:38;17.90;;;10.93;;
56391;SDS011;42289;53.582;9.714;2022-09-12T02:23:08;24.58;;;11.95;;
56391;SDS011;42289;53.582;9.714;2022-09-12T02:25:38;39.80;;;12.90;;
56391;SDS011;42289;53.582;9.714;2022-09-12T02:28:09;49.97;;;14.75;;
56391;SDS011;42289;53.582;9.714;2022-09-12T02:30:40;24.73;;;13.80;;
56391;SDS011;42289;53.582;9.714;2022-09-12T02:33:16;25.05;;;13.20;;
56391;SDS011;42289;53.582;9.714;2022-09-12T02:35:51;20.58;;;12.95;;
56391;SDS011;42289;53.582;9.714;2022-09-12T02:38:23;47.05;;;16.33;;
56391;SDS011;42289;53.582;9.714;2022-09-12T02:40:53;56.10;;;17.42;;
56391;SDS011;42289;53.582;9.714;2022-09-12T02:43:20;40.47;;;16.52;;
56391;SDS011;42289;53.582;9.714;2022-09-12T02:45:46;32.67;;;16.48;;
56391;SDS011;42289;53.582;9.714;2022-09-12T02:48:15;27.23;;;16.38;;
56391;SDS011;42289;53.582;9.714;2022-09-12T02:50:46;25.73;;;15.43;;
56391;SDS011;42289;53.582;9.714;2022-09-12T02:53:13;21.73;;;14.25;;
56391;SDS011;42289;53.582;9.714;2022-09-12T02:55:40;23.13;;;13.70;;
56391;SDS011;42289;53.582;9.714;2022-09-12T02:58:08;24.38;;;14.05;;
56391;SDS011;42289;53.582;9.714;2022-09-12T03:00:42;29.27;;;15.27;;
56391;SDS011;42289;53.582;9.714;2022-09-12T03:03:19;26.35;;;14.38;;
56391;SDS011;42289;53.582;9.714;2022-09-12T03:06:00;26.70;;;14.98;;
56391;SDS011;42289;53.582;9.714;2022-09-12T03:08:39;30.05;;;15.63;;
56391;SDS011;42289;53.582;9.714;2022-09-12T03:11:32;30.20;;;15.98;;
56391;SDS011;42289;53.582;9.714;2022-09-12T03:14:14;28.20;;;15.77;;
56391;SDS011;42289;53.582;9.714;2022-09-12T03:16:52;30.20;;;16.42;;
56391;SDS011;42289;53.582;9.714;2022-09-12T03:19:32;31.08;;;15.73;;
56391;SDS011;42289;53.582;9.714;2022-09-12T03:22:08;31.58;;;17.20;;
56391;SDS011;42289;53.582;9.714;2022-09-12T03:24:41;38.53;;;17.88;;
56391;SDS011;42289;53.582;9.714;2022-09-12T03:27:14;45.50;;;19.63;;
56391;SDS011;42289;53.582;9.714;2022-09-12T03:29:44;36.50;;;18.38;;
56391;SDS011;42289;53.582;9.714;2022-09-12T03:32:13;53.97;;;20.38;;
56391;SDS011;42289;53.582;9.714;2022-09-12T03:34:41;70.75;;;23.67;;
56391;SDS011;42289;53.582;9.714;2022-09-12T03:37:07;59.95;;;23.38;;
56391;SDS011;42289;53.582;9.714;2022-09-12T03:39:34;57.38;;;23.23;;
56391;SDS011;42289;53.582;9.714;2022-09-12T03:42:00;66.90;;;23.30;;
56391;SDS011;42289;53.582;9.714;2022-09-12T03:44:27;166.38;;;26.45;;
56391;SDS011;42289;53.582;9.714;2022-09-12T03:46:53;166.73;;;28.58;;
56391;SDS011;42289;53.582;9.714;2022-09-12T03:49:20;158.82;;;28.67;;
56391;SDS011;42289;53.582;9.714;2022-09-12T03:51:47;148.07;;;29.60;;
56391;SDS011;42289;53.582;9.714;2022-09-12T03:54:14;114.70;;;27.17;;
56391;SDS011;42289;53.582;9.714;2022-09-12T03:56:40;88.72;;;26.25;;
56391;SDS011;42289;53.582;9.714;2022-09-12T03:59:06;77.05;;;24.45;;
56391;SDS011;42289;53.582;9.714;2022-09-12T04:01:33;69.95;;;25.25;;
56391;SDS011;42289;53.582;9.714;2022-09-12T04:04:01;62.35;;;22.38;;
56391;SDS011;42289;53.582;9.714;2022-09-12T04:06:28;57.70;;;22.55;;
56391;SDS011;42289;53.582;9.714;2022-09-12T04:08:56;49.95;;;21.92;;
56391;SDS011;42289;53.582;9.714;2022-09-12T04:11:22;50.22;;;22.40;;
56391;SDS011;42289;53.582;9.714;2022-09-12T04:13:49;63.85;;;23.38;;
56391;SDS011;42289;53.582;9.714;2022-09-12T04:16:16;63.38;;;23.90;;
56391;SDS011;42289;53.582;9.714;2022-09-12T04:18:43;91.40;;;26.70;;
56391;SDS011;42289;53.582;9.714;2022-09-12T04:21:11;96.05;;;24.70;;
56391;SDS011;42289;53.582;9.714;2022-09-12T04:23:39;108.78;;;25.08;;
56391;SDS011;42289;53.582;9.714;2022-09-12T04:26:07;123.30;;;24.67;;
56391;SDS011;42289;53.582;9.714;2022-09-12T04:28:34;158.38;;;25.27;;
56391;SDS011;42289;53.582;9.714;2022-09-12T04:31:02;116.50;;;25.38;;
56391;SDS011;42289;53.582;9.714;2022-09-12T04:33:31;107.05;;;24.48;;
56391;SDS011;42289;53.582;9.714;2022-09-12T04:36:01;134.45;;;24.38;;
56391;SDS011;42289;53.582;9.714;2022-09-12T04:38:28;108.07;;;22.95;;
56391;SDS011;42289;53.582;9.714;2022-09-12T04:40:55;64.93;;;22.65;;
56391;SDS011;42289;53.582;9.714;2022-09-12T04:43:23;61.95;;;22.23;;
56391;SDS011;42289;53.582;9.714;2022-09-12T04:45:49;43.58;;;20.17;;
56391;SDS011;42289;53.582;9.714;2022-09-12T04:48:16;44.33;;;20.38;;
56391;SDS011;42289;53.582;9.714;2022-09-12T04:50:42;41.45;;;20.10;;
56391;SDS011;42289;53.582;9.714;2022-09-12T04:53:09;41.28;;;19.85;;
56391;SDS011;42289;53.582;9.714;2022-09-12T04:55:35;43.58;;;20.48;;
56391;SDS011;42289;53.582;9.714;2022-09-12T04:58:01;42.28;;;20.75;;
56391;SDS011;42289;53.582;9.714;2022-09-12T05:00:29;43.22;;;20.38;;
56391;SDS011;42289;53.582;9.714;2022-09-12T05:02:55;46.47;;;21.83;;
56391;SDS011;42289;53.582;9.714;2022-09-12T05:05:22;46.92;;;21.27;;
56391;SDS011;42289;53.582;9.714;2022-09-12T05:07:48;39.00;;;19.58;;
56391;SDS011;42289;53.582;9.714;2022-09-12T05:10:14;39.15;;;19.73;;
56391;SDS011;42289;53.582;9.714;2022-09-12T05:12:42;38.88;;;19.45;;
56391;SDS011;42289;53.582;9.714;2022-09-12T05:15:08;41.63;;;19.83;;
56391;SDS011;42289;53.582;9.714;2022-09-12T05:17:36;41.35;;;19.95;;
56391;SDS011;42289;53.582;9.714;2022-09-12T05:20:03;43.28;;;19.58;;
56391;SDS011;42289;53.582;9.714;2022-09-12T05:22:30;39.03;;;19.50;;
56391;SDS011;42289;53.582;9.714;2022-09-12T05:24:56;39.35;;;19.73;;
56391;SDS011;42289;53.582;9.714;2022-09-12T05:27:22;36.75;;;19.33;;
56391;SDS011;42289;53.582;9.714;2022-09-12T05:29:49;35.70;;;18.50;;
56391;SDS011;42289;53.582;9.714;2022-09-12T05:32:16;44.67;;;22.88;;
56391;SDS011;42289;53.582;9.714;2022-09-12T05:34:44;40.33;;;19.85;;
56391;SDS011;42289;53.582;9.714;2022-09-12T05:37:10;38.28;;;19.27;;
56391;SDS011;42289;53.582;9.714;2022-09-12T05:39:37;36.22;;;18.98;;
56391;SDS011;42289;53.582;9.714;2022-09-12T05:42:03;41.25;;;20.75;;
56391;SDS011;42289;53.582;9.714;2022-09-12T05:44:30;34.75;;;17.85;;
56391;SDS011;42289;53.582;9.714;2022-09-12T05:46:57;32.03;;;17.67;;
56391;SDS011;42289;53.582;9.714;2022-09-12T05:49:23;34.63;;;17.30;;
56391;SDS011;42289;53.582;9.714;2022-09-12T05:51:51;35.67;;;19.08;;
56391;SDS011;42289;53.582;9.714;2022-09-12T05:54:17;38.65;;;21.10;;
56391;SDS011;42289;53.582;9.714;2022-09-12T05:56:45;46.10;;;26.10;;
56391;SDS011;42289;53.582;9.714;2022-09-12T05:59:13;39.60;;;21.15;;
56391;SDS011;42289;53.582;9.714;2022-09-12T06:01:41;44.75;;;24.80;;
56391;SDS011;42289;53.582;9.714;2022-09-12T06:04:08;33.67;;;19.02;;
56391;SDS011;42289;53.582;9.714;2022-09-12T06:06:36;31.35;;;18.20;;
56391;SDS011;42289;53.582;9.714;2022-09-12T06:09:07;28.65;;;17.42;;
56391;SDS011;42289;53.582;9.714;2022-09-12T06:11:35;29.10;;;18.20;;
56391;SDS011;42289;53.582;9.714;2022-09-12T06:14:04;31.35;;;19.65;;
56391;SDS011;42289;53.582;9.714;2022-09-12T06:16:31;35.00;;;20.67;;
56391;SDS011;42289;53.582;9.714;2022-09-12T06:18:59;37.17;;;22.30;;
56391;SDS011;42289;53.582;9.714;2022-09-12T06:21:27;34.08;;;21.20;;
56391;SDS011;42289;53.582;9.714;2022-09-12T06:23:55;29.30;;;19.73;;
56391;SDS011;42289;53.582;9.714;2022-09-12T06:26:25;31.60;;;20.38;;
56391;SDS011;42289;53.582;9.714;2022-09-12T06:28:53;33.00;;;20.25;;
56391;SDS011;42289;53.582;9.714;2022-09-12T06:31:21;28.38;;;18.52;;
56391;SDS011;42289;53.582;9.714;2022-09-12T06:33:50;25.65;;;16.88;;
56391;SDS011;42289;53.582;9.714;2022-09-12T06:36:19;23.15;;;16.50;;
56391;SDS011;42289;53.582;9.714;2022-09-12T06:38:46;22.02;;;15.15;;
56391;SDS011;42289;53.582;9.714;2022-09-12T06:41:13;22.73;;;15.32;;
56391;SDS011;42289;53.582;9.714;2022-09-12T06:43:42;18.02;;;13.68;;
56391;SDS011;42289;53.582;9.714;2022-09-12T06:46:08;19.73;;;13.27;;
56391;SDS011;42289;53.582;9.714;2022-09-12T06:48:37;14.50;;;11.63;;
56391;SDS011;42289;53.582;9.714;2022-09-12T06:51:04;18.38;;;12.05;;
56391;SDS011;42289;53.582;9.714;2022-09-12T06:53:32;17.88;;;12.68;;
56391;SDS011;42289;53.582;9.714;2022-09-12T06:56:01;15.98;;;12.30;;
56391;SDS011;42289;53.582;9.714;2022-09-12T06:58:29;14.10;;;11.20;;
56391;SDS011;42289;53.582;9.714;2022-09-12T07:01:00;13.90;;;10.52;;
56391;SDS011;42289;53.582;9.714;2022-09-12T07:03:28;14.07;;;10.80;;
56391;SDS011;42289;53.582;9.714;2022-09-12T07:05:55;14.57;;;10.98;;
56391;SDS011;42289;53.582;9.714;2022-09-12T07:08:21;14.75;;;10.23;;
56391;SDS011;42289;53.582;9.714;2022-09-12T07:10:47;13.52;;;10.20;;
56391;SDS011;42289;53.582;9.714;2022-09-12T07:13:14;15.15;;;10.18;;
56391;SDS011;42289;53.582;9.714;2022-09-12T07:15:41;12.77;;;9.52;;
56391;SDS011;42289;53.582;9.714;2022-09-12T07:18:08;12.50;;;9.65;;
56391;SDS011;42289;53.582;9.714;2022-09-12T07:20:35;12.38;;;9.90;;
56391;SDS011;42289;53.582;9.714;2022-09-12T07:23:02;12.52;;;9.13;;
56391;SDS011;42289;53.582;9.714;2022-09-12T07:25:28;11.77;;;8.50;;
56391;SDS011;42289;53.582;9.714;2022-09-12T07:27:55;10.88;;;8.88;;
56391;SDS011;42289;53.582;9.714;2022-09-12T07:30:21;11.40;;;9.32;;
56391;SDS011;42289;53.582;9.714;2022-09-12T07:32:50;11.45;;;8.88;;
56391;SDS011;42289;53.582;9.714;2022-09-12T07:35:19;11.80;;;8.77;;
56391;SDS011;42289;53.582;9.714;2022-09-12T07:37:47;15.27;;;8.85;;
56391;SDS011;42289;53.582;9.714;2022-09-12T07:40:14;10.80;;;8.32;;
56391;SDS011;42289;53.582;9.714;2022-09-12T07:42:40;9.15;;;7.43;;
56391;SDS011;42289;53.582;9.714;2022-09-12T07:45:07;11.98;;;8.45;;
56391;SDS011;42289;53.582;9.714;2022-09-12T07:47:34;11.95;;;8.05;;
56391;SDS011;42289;53.582;9.714;2022-09-12T07:50:00;11.80;;;7.97;;
56391;SDS011;42289;53.582;9.714;2022-09-12T07:52:28;10.02;;;7.80;;
56391;SDS011;42289;53.582;9.714;2022-09-12T07:54:55;8.95;;;7.28;;
56391;SDS011;42289;53.582;9.714;2022-09-12T07:57:21;9.80;;;7.32;;
56391;SDS011;42289;53.582;9.714;2022-09-12T07:59:47;9.10;;;7.20;;
56391;SDS011;42289;53.582;9.714;2022-09-12T08:02:14;9.43;;;7.18;;
56391;SDS011;42289;53.582;9.714;2022-09-12T08:04:40;10.55;;;6.97;;
56391;SDS011;42289;53.582;9.714;2022-09-12T08:07:07;9.48;;;6.97;;
56391;SDS011;42289;53.582;9.714;2022-09-12T08:09:35;9.02;;;6.68;;
56391;SDS011;42289;53.582;9.714;2022-09-12T08:12:01;8.10;;;6.18;;
56391;SDS011;42289;53.582;9.714;2022-09-12T08:14:28;7.03;;;5.45;;
56391;SDS011;42289;53.582;9.714;2022-09-12T08:16:54;7.38;;;5.78;;
56391;SDS011;42289;53.582;9.714;2022-09-12T08:19:21;6.45;;;5.25;;
56391;SDS011;42289;53.582;9.714;2022-09-12T08:21:47;7.90;;;5.22;;
56391;SDS011;42289;53.582;9.714;2022-09-12T08:24:14;7.05;;;5.10;;
56391;SDS011;42289;53.582;9.714;2022-09-12T08:26:42;7.47;;;5.38;;
56391;SDS011;42289;53.582;9.714;2022-09-12T08:29:08;7.07;;;5.47;;
56391;SDS011;42289;53.582;9.714;2022-09-12T08:31:35;7.18;;;5.10;;
56391;SDS011;42289;53.582;9.714;2022-09-12T08:34:01;7.63;;;4.72;;
56391;SDS011;42289;53.582;9.714;2022-09-12T08:36:29;7.18;;;5.00;;
56391;SDS011;42289;53.582;9.714;2022-09-12T08:38:56;8.68;;;4.95;;
56391;SDS011;42289;53.582;9.714;2022-09-12T08:41:25;6.10;;;5.13;;
56391;SDS011;42289;53.582;9.714;2022-09-12T08:43:58;6.35;;;4.68;;
56391;SDS011;42289;53.582;9.714;2022-09-12T08:46:37;7.20;;;5.13;;
56391;SDS011;42289;53.582;9.714;2022-09-12T08:49:12;7.20;;;5.78;;
56391;SDS011;42289;53.582;9.714;2022-09-12T08:51:51;5.93;;;5.10;;
56391;SDS011;42289;53.582;9.714;2022-09-12T08:54:19;8.40;;;5.68;;
56391;SDS011;42289;53.582;9.714;2022-09-12T08:56:50;6.75;;;4.53;;
56391;SDS011;42289;53.582;9.714;2022-09-12T08:59:20;6.90;;;5.07;;
56391;SDS011;42289;53.582;9.714;2022-09-12T09:01:46;6.72;;;4.80;;
56391;SDS011;42289;53.582;9.714;2022-09-12T09:04:26;7.07;;;4.80;;
56391;SDS011;42289;53.582;9.714;2022-09-12T09:07:16;5.15;;;4.18;;
56391;SDS011;42289;53.582;9.714;2022-09-12T09:10:13;5.22;;;3.78;;
56391;SDS011;42289;53.582;9.714;2022-09-12T09:12:50;6.00;;;4.40;;
56391;SDS011;42289;53.582;9.714;2022-09-12T09:15:31;6.30;;;4.60;;
56391;SDS011;42289;53.582;9.714;2022-09-12T09:18:07;4.53;;;3.50;;
56391;SDS011;42289;53.582;9.714;2022-09-12T09:20:41;5.22;;;3.45;;
56391;SDS011;42289;53.582;9.714;2022-09-12T09:23:12;5.30;;;3.20;;
56391;SDS011;42289;53.582;9.714;2022-09-12T09:25:47;4.97;;;3.53;;
56391;SDS011;42289;53.582;9.714;2022-09-12T09:30:48;3.67;;;2.78;;
56391;SDS011;42289;53.582;9.714;2022-09-12T09:33:17;4.90;;;2.72;;
56391;SDS011;42289;53.582;9.714;2022-09-12T09:35:47;4.03;;;2.63;;
56391;SDS011;42289;53.582;9.714;2022-09-12T09:38:22;5.18;;;3.20;;
56391;SDS011;42289;53.582;9.714;2022-09-12T09:40:58;3.25;;;2.13;;
56391;SDS011;42289;53.582;9.714;2022-09-12T09:43:35;4.35;;;2.00;;
56391;SDS011;42289;53.582;9.714;2022-09-12T09:46:04;3.72;;;1.90;;
56391;SDS011;42289;53.582;9.714;2022-09-12T09:48:32;2.50;;;1.50;;
56391;SDS011;42289;53.582;9.714;2022-09-12T09:51:02;2.83;;;1.48;;
56391;SDS011;42289;53.582;9.714;2022-09-12T09:53:34;4.60;;;1.80;;
56391;SDS011;42289;53.582;9.714;2022-09-12T09:56:06;3.97;;;1.80;;
56391;SDS011;42289;53.582;9.714;2022-09-12T09:58:37;3.15;;;1.65;;
56391;SDS011;42289;53.582;9.714;2022-09-12T10:01:10;3.60;;;1.85;;
56391;SDS011;42289;53.582;9.714;2022-09-12T10:03:39;2.72;;;1.35;;
56391;SDS011;42289;53.582;9.714;2022-09-12T10:06:21;2.85;;;1.30;;
56391;SDS011;42289;53.582;9.714;2022-09-12T10:08:50;2.60;;;1.40;;
56391;SDS011;42289;53.582;9.714;2022-09-12T10:11:28;2.75;;;1.15;;
56391;SDS011;42289;53.582;9.714;2022-09-12T10:13:55;2.88;;;1.20;;
56391;SDS011;42289;53.582;9.714;2022-09-12T10:16:26;2.03;;;1.17;;
56391;SDS011;42289;53.582;9.714;2022-09-12T10:18:54;4.35;;;1.30;;
56391;SDS011;42289;53.582;9.714;2022-09-12T10:21:24;3.25;;;1.40;;
56391;SDS011;42289;53.582;9.714;2022-09-12T10:24:05;3.38;;;1.20;;
56391;SDS011;42289;53.582;9.714;2022-09-12T10:26:48;4.10;;;1.35;;
56391;SDS011;42289;53.582;9.714;2022-09-12T10:29:17;2.00;;;1.10;;
56391;SDS011;42289;53.582;9.714;2022-09-12T10:31:51;2.42;;;1.30;;
56391;SDS011;42289;53.582;9.714;2022-09-12T10:34:21;2.65;;;1.40;;
56391;SDS011;42289;53.582;9.714;2022-09-12T10:36:52;2.22;;;1.27;;
56391;SDS011;42289;53.582;9.714;2022-09-12T10:39:29;2.92;;;1.65;;
56391;SDS011;42289;53.582;9.714;2022-09-12T10:41:57;3.63;;;1.70;;
56391;SDS011;42289;53.582;9.714;2022-09-12T10:44:25;2.65;;;1.35;;
56391;SDS011;42289;53.582;9.714;2022-09-12T10:46:55;5.22;;;1.92;;
56391;SDS011;42289;53.582;9.714;2022-09-12T10:49:24;4.05;;;1.60;;
56391;SDS011;42289;53.582;9.714;2022-09-12T10:51:53;3.47;;;1.40;;
56391;SDS011;42289;53.582;9.714;2022-09-12T10:54:24;3.40;;;1.80;;
56391;SDS011;42289;53.582;9.714;2022-09-12T10:57:02;2.95;;;1.77;;
56391;SDS011;42289;53.582;9.714;2022-09-12T10:59:51;3.65;;;2.20;;
56391;SDS011;42289;53.582;9.714;2022-09-12T11:02:29;2.90;;;1.70;;
56391;SDS011;42289;53.582;9.714;2022-09-12T11:05:09;3.67;;;1.85;;
56391;SDS011;42289;53.582;9.714;2022-09-12T11:07:41;4.28;;;2.20;;
56391;SDS011;42289;53.582;9.714;2022-09-12T11:12:59;3.90;;;2.40;;
56391;SDS011;42289;53.582;9.714;2022-09-12T11:15:40;2.88;;;1.73;;
56391;SDS011;42289;53.582;9.714;2022-09-12T11:18:30;3.40;;;2.20;;
56391;SDS011;42289;53.582;9.714;2022-09-12T11:21:14;3.28;;;1.95;;
56391;SDS011;42289;53.582;9.714;2022-09-12T11:24:07;3.38;;;2.00;;
56391;SDS011;42289;53.582;9.714;2022-09-12T11:26:48;4.30;;;3.00;;
56391;SDS011;42289;53.582;9.714;2022-09-12T11:29:26;3.45;;;2.13;;
56391;SDS011;42289;53.582;9.714;2022-09-12T11:32:08;4.13;;;2.17;;
56391;SDS011;42289;53.582;9.714;2022-09-12T11:34:53;5.20;;;2.40;;
56391;SDS011;42289;53.582;9.714;2022-09-12T11:37:35;3.92;;;2.50;;
56391;SDS011;42289;53.582;9.714;2022-09-12T11:40:18;2.63;;;1.70;;
56391;SDS011;42289;53.582;9.714;2022-09-12T11:42:53;7.13;;;3.08;;
56391;SDS011;42289;53.582;9.714;2022-09-12T11:45:25;4.57;;;2.75;;
56391;SDS011;42289;53.582;9.714;2022-09-12T11:47:57;3.47;;;2.00;;
56391;SDS011;42289;53.582;9.714;2022-09-12T11:50:31;3.08;;;2.15;;
56391;SDS011;42289;53.582;9.714;2022-09-12T11:52:59;4.93;;;2.25;;
56391;SDS011;42289;53.582;9.714;2022-09-12T11:55:31;3.63;;;2.07;;
56391;SDS011;42289;53.582;9.714;2022-09-12T11:58:09;5.15;;;2.10;;
56391;SDS011;42289;53.582;9.714;2022-09-12T12:00:37;5.30;;;2.20;;
56391;SDS011;42289;53.582;9.714;2022-09-12T12:03:07;3.63;;;2.20;;
56391;SDS011;42289;53.582;9.714;2022-09-12T12:05:43;4.38;;;2.47;;
56391;SDS011;42289;53.582;9.714;2022-09-12T12:08:17;4.43;;;2.08;;
56391;SDS011;42289;53.582;9.714;2022-09-12T12:10:47;3.70;;;2.20;;
56391;SDS011;42289;53.582;9.714;2022-09-12T12:13:18;2.70;;;1.65;;
56391;SDS011;42289;53.582;9.714;2022-09-12T12:15:49;3.47;;;1.80;;
56391;SDS011;42289;53.582;9.714;2022-09-12T12:18:19;4.25;;;2.38;;
56391;SDS011;42289;53.582;9.714;2022-09-12T12:20:50;3.88;;;2.20;;
56391;SDS011;42289;53.582;9.714;2022-09-12T12:23:21;3.47;;;1.88;;
56391;SDS011;42289;53.582;9.714;2022-09-12T12:25:50;3.53;;;2.00;;
56391;SDS011;42289;53.582;9.714;2022-09-12T12:31:24;4.97;;;2.72;;
56391;SDS011;42289;53.582;9.714;2022-09-12T12:33:51;6.60;;;4.60;;
56391;SDS011;42289;53.582;9.714;2022-09-12T12:36:35;5.70;;;3.00;;
56391;SDS011;42289;53.582;9.714;2022-09-12T12:45:45;4.88;;;3.42;;
56391;SDS011;42289;53.582;9.714;2022-09-12T12:48:14;3.45;;;2.40;;
56391;SDS011;42289;53.582;9.714;2022-09-12T12:50:44;4.72;;;3.00;;
56391;SDS011;42289;53.582;9.714;2022-09-12T12:53:16;5.47;;;3.50;;
56391;SDS011;42289;53.582;9.714;2022-09-12T12:55:47;3.35;;;2.20;;
56391;SDS011;42289;53.582;9.714;2022-09-12T12:58:27;7.25;;;4.03;;
56391;SDS011;42289;53.582;9.714;2022-09-12T13:01:04;6.22;;;3.97;;
56391;SDS011;42289;53.582;9.714;2022-09-12T13:03:36;5.00;;;2.63;;
56391;SDS011;42289;53.582;9.714;2022-09-12T13:06:07;4.32;;;2.53;;
56391;SDS011;42289;53.582;9.714;2022-09-12T13:08:37;8.52;;;3.60;;
56391;SDS011;42289;53.582;9.714;2022-09-12T13:11:09;4.10;;;2.30;;
56391;SDS011;42289;53.582;9.714;2022-09-12T13:13:41;5.70;;;3.67;;
56391;SDS011;42289;53.582;9.714;2022-09-12T13:16:27;4.35;;;2.63;;
56391;SDS011;42289;53.582;9.714;2022-09-12T13:18:55;5.32;;;3.53;;
56391;SDS011;42289;53.582;9.714;2022-09-12T13:21:23;4.82;;;2.70;;
56391;SDS011;42289;53.582;9.714;2022-09-12T13:23:59;8.25;;;3.30;;
56391;SDS011;42289;53.582;9.714;2022-09-12T13:26:27;5.68;;;3.90;;
56391;SDS011;42289;53.582;9.714;2022-09-12T13:29:09;5.45;;;3.20;;
56391;SDS011;42289;53.582;9.714;2022-09-12T13:31:37;5.25;;;3.80;;
56391;SDS011;42289;53.582;9.714;2022-09-12T13:34:04;6.57;;;3.78;;
56391;SDS011;42289;53.582;9.714;2022-09-12T13:36:45;7.95;;;3.80;;
56391;SDS011;42289;53.582;9.714;2022-09-12T13:39:25;5.22;;;3.17;;
56391;SDS011;42289;53.582;9.714;2022-09-12T13:42:02;5.45;;;3.30;;
56391;SDS011;42289;53.582;9.714;2022-09-12T13:44:47;6.18;;;3.63;;
56391;SDS011;42289;53.582;9.714;2022-09-12T13:47:17;7.15;;;4.30;;
56391;SDS011;42289;53.582;9.714;2022-09-12T13:49:50;4.15;;;3.03;;
56391;SDS011;42289;53.582;9.714;2022-09-12T13:52:17;4.85;;;2.60;;
56391;SDS011;42289;53.582;9.714;2022-09-12T13:54:48;5.28;;;3.30;;
56391;SDS011;42289;53.582;9.714;2022-09-12T13:57:28;7.25;;;3.40;;
56391;SDS011;42289;53.582;9.714;2022-09-12T13:59:57;6.40;;;4.13;;
56391;SDS011;42289;53.582;9.714;2022-09-12T14:02:26;5.13;;;3.15;;
56391;SDS011;42289;53.582;9.714;2022-09-12T14:04:55;4.65;;;2.70;;
56391;SDS011;42289;53.582;9.714;2022-09-12T14:07:42;7.35;;;4.25;;
56391;SDS011;42289;53.582;9.714;2022-09-12T14:10:22;7.05;;;4.28;;
56391;SDS011;42289;53.582;9.714;2022-09-12T14:12:52;7.97;;;4.35;;
56391;SDS011;42289;53.582;9.714;2022-09-12T14:15:22;5.13;;;2.83;;
56391;SDS011;42289;53.582;9.714;2022-09-12T14:17:52;6.95;;;3.50;;
56391;SDS011;42289;53.582;9.714;2022-09-12T14:20:21;5.63;;;3.72;;
56391;SDS011;42289;53.582;9.714;2022-09-12T14:22:50;7.43;;;3.55;;
56391;SDS011;42289;53.582;9.714;2022-09-12T14:25:18;6.80;;;4.35;;
56391;SDS011;42289;53.582;9.714;2022-09-12T14:27:49;8.45;;;4.80;;
56391;SDS011;42289;53.582;9.714;2022-09-12T14:30:19;7.45;;;4.80;;
56391;SDS011;42289;53.582;9.714;2022-09-12T14:33:01;8.18;;;4.50;;
56391;SDS011;42289;53.582;9.714;2022-09-12T14:35:30;7.90;;;4.20;;
56391;SDS011;42289;53.582;9.714;2022-09-12T14:38:04;8.68;;;4.80;;
56391;SDS011;42289;53.582;9.714;2022-09-12T14:40:36;7.13;;;4.38;;
56391;SDS011;42289;53.582;9.714;2022-09-12T14:43:12;7.45;;;4.97;;
56391;SDS011;42289;53.582;9.714;2022-09-12T14:45:44;8.32;;;4.55;;
56391;SDS011;42289;53.582;9.714;2022-09-12T14:48:17;6.40;;;3.97;;
56391;SDS011;42289;53.582;9.714;2022-09-12T14:50:47;7.13;;;4.28;;
56391;SDS011;42289;53.582;9.714;2022-09-12T14:53:20;6.05;;;4.30;;
56391;SDS011;42289;53.582;9.714;2022-09-12T14:55:57;6.43;;;4.00;;
56391;SDS011;42289;53.582;9.714;2022-09-12T14:58:32;6.57;;;4.60;;
56391;SDS011;42289;53.582;9.714;2022-09-12T15:00:59;7.45;;;4.50;;
56391;SDS011;42289;53.582;9.714;2022-09-12T15:03:28;6.00;;;3.70;;
56391;SDS011;42289;53.582;9.714;2022-09-12T15:05:57;5.57;;;3.13;;
56391;SDS011;42289;53.582;9.714;2022-09-12T15:08:24;7.30;;;4.20;;
56391;SDS011;42289;53.582;9.714;2022-09-12T15:10:52;7.43;;;4.47;;
56391;SDS011;42289;53.582;9.714;2022-09-12T15:13:20;5.15;;;3.13;;